createdAt,value
2023-01-12T00:01:42.853Z,31.75
2023-01-12T00:04:14.181Z,31.75
2023-01-12T00:06:43.609Z,35.00
2023-01-12T00:09:13.014Z,32.50
2023-01-12T00:11:42.246Z,33.50
2023-01-12T00:14:11.561Z,31.75
2023-01-12T00:16:42.005Z,36.00
2023-01-12T00:19:13.044Z,36.50
2023-01-12T00:21:56.636Z,36.25
2023-01-12T00:24:27.578Z,36.50
2023-01-12T00:26:57.752Z,36.00
2023-01-12T00:29:27.888Z,40.00
2023-01-12T00:31:59.388Z,38.75
2023-01-12T00:34:29.799Z,39.50
2023-01-12T00:37:01.283Z,39.00
2023-01-12T00:39:30.303Z,38.75
2023-01-12T00:42:16.961Z,36.00
2023-01-12T00:45:03.192Z,37.50
2023-01-12T00:47:34.413Z,36.00
2023-01-12T00:50:03.372Z,37.25
2023-01-12T00:52:32.244Z,33.75
2023-01-12T00:55:01.377Z,35.25
2023-01-12T00:57:30.222Z,35.00
2023-01-12T01:00:00.345Z,34.50
2023-01-12T01:02:29.944Z,35.25
2023-01-12T01:05:00.343Z,36.00
2023-01-12T01:07:29.039Z,33.25
2023-01-12T01:09:58.050Z,36.00
2023-01-12T01:12:27.128Z,36.00
2023-01-12T01:14:56.636Z,37.75
2023-01-12T01:17:25.443Z,39.50
2023-01-12T01:19:54.355Z,39.75
2023-01-12T01:22:24.374Z,38.50
2023-01-12T01:24:53.206Z,35.75
2023-01-12T01:27:21.937Z,36.00
2023-01-12T01:29:51.105Z,38.50
2023-01-12T01:32:19.681Z,38.25
2023-01-12T01:34:49.030Z,36.25
2023-01-12T01:37:18.486Z,36.50
2023-01-12T01:39:48.819Z,35.25
2023-01-12T01:42:28.384Z,36.25
2023-01-12T01:45:00.878Z,34.00
2023-01-12T01:47:36.274Z,32.75
2023-01-12T01:50:13.813Z,31.00
2023-01-12T01:52:46.412Z,34.50
2023-01-12T01:55:21.920Z,31.75
2023-01-12T01:57:53.641Z,35.00
2023-01-12T02:00:23.663Z,33.50
2023-01-12T02:02:53.477Z,31.00
2023-01-12T02:05:26.152Z,33.50
2023-01-12T02:07:56.263Z,33.50
2023-01-12T02:10:26.945Z,32.00
2023-01-12T02:13:27.785Z,33.00
2023-01-12T02:16:20.507Z,35.00
2023-01-12T02:18:58.068Z,33.25
2023-01-12T02:21:57.092Z,33.25
2023-01-12T02:24:58.178Z,32.25
2023-01-12T02:27:57.953Z,31.25
2023-01-12T02:31:02.943Z,27.75
2023-01-12T02:33:44.952Z,32.75
2023-01-12T02:36:19.337Z,35.00
2023-01-12T02:38:52.961Z,34.75
2023-01-12T02:41:41.816Z,33.50
2023-01-12T02:44:31.739Z,34.25
2023-01-12T02:47:04.289Z,34.50
2023-01-12T02:49:41.220Z,32.75
2023-01-12T02:52:15.739Z,35.75
2023-01-12T02:54:50.802Z,34.25
2023-01-12T02:57:24.462Z,33.00
2023-01-12T02:59:56.050Z,35.25
2023-01-12T03:02:27.818Z,36.50
2023-01-12T03:04:58.478Z,36.00
2023-01-12T03:07:43.847Z,34.75
2023-01-12T03:10:41.471Z,35.75
2023-01-12T03:13:13.444Z,39.00
2023-01-12T03:15:47.311Z,37.75
2023-01-12T03:18:19.873Z,37.00
2023-01-12T03:20:55.223Z,38.00
2023-01-12T03:23:30.948Z,38.50
2023-01-12T03:26:02.385Z,36.25
2023-01-12T03:28:35.814Z,34.25
2023-01-12T03:31:11.445Z,36.00
2023-01-12T03:33:43.094Z,33.50
2023-01-12T03:36:35.661Z,32.25
2023-01-12T03:39:15.038Z,12.75
2023-01-12T03:41:56.030Z,29.75
2023-01-12T03:44:34.020Z,31.00
2023-01-12T03:47:08.629Z,30.00
2023-01-12T03:49:42.783Z,30.50
2023-01-12T03:52:14.397Z,30.75
2023-01-12T03:54:45.262Z,26.75
2023-01-12T03:57:15.353Z,28.50
2023-01-12T03:59:44.329Z,27.50
2023-01-12T04:02:14.554Z,25.25
2023-01-12T04:04:44.253Z,25.60
2023-01-12T04:07:15.221Z,22.60
2023-01-12T04:09:43.874Z,23.00
2023-01-12T04:12:12.685Z,21.00
2023-01-12T04:14:46.871Z,24.50
2023-01-12T04:17:17.790Z,25.75
2023-01-12T04:19:46.413Z,22.75
2023-01-12T04:22:35.003Z,26.25
2023-01-12T04:25:04.033Z,25.00
2023-01-12T04:27:33.132Z,28.50
2023-01-12T04:30:01.860Z,43.00
2023-01-12T04:32:31.015Z,17.75
2023-01-12T04:34:59.893Z,32.50
2023-01-12T04:37:30.095Z,29.50
2023-01-12T04:39:58.820Z,27.25
2023-01-12T04:42:45.630Z,29.25
2023-01-12T04:45:14.257Z,28.50
2023-01-12T04:47:43.899Z,28.75
2023-01-12T04:50:12.556Z,21.75
2023-01-12T04:52:43.249Z,28.00
2023-01-12T04:55:12.510Z,28.75
2023-01-12T04:57:41.679Z,28.00
2023-01-12T05:00:11.788Z,29.00
2023-01-12T05:02:40.791Z,29.25
2023-01-12T05:05:09.833Z,29.25
2023-01-12T05:07:59.075Z,34.75
2023-01-12T05:10:28.139Z,34.50
2023-01-12T05:12:57.226Z,34.25
2023-01-12T05:15:26.187Z,30.50
2023-01-12T05:17:55.589Z,30.00
2023-01-12T05:20:24.497Z,39.50
2023-01-12T05:22:53.491Z,36.00
2023-01-12T05:25:22.665Z,35.25
2023-01-12T05:27:57.884Z,29.75
2023-01-12T05:30:29.383Z,31.00
2023-01-12T05:33:00.990Z,30.00
2023-01-12T05:35:29.910Z,28.75
2023-01-12T05:37:59.159Z,30.75
2023-01-12T05:40:28.059Z,31.25
2023-01-12T05:43:15.704Z,31.50
2023-01-12T05:45:44.544Z,31.25
2023-01-12T05:48:13.504Z,31.00
2023-01-12T05:50:42.094Z,30.75
2023-01-12T05:53:11.403Z,35.25
2023-01-12T05:55:40.257Z,34.00
2023-01-12T05:58:10.817Z,31.75
2023-01-12T06:00:39.626Z,31.00
2023-01-12T06:03:08.902Z,31.00
2023-01-12T06:05:37.466Z,34.25
2023-01-12T06:08:07.036Z,33.50
2023-01-12T06:10:37.089Z,30.25
2023-01-12T06:13:23.903Z,32.75
2023-01-12T06:15:54.151Z,33.50
2023-01-12T06:18:23.484Z,35.50
2023-01-12T06:20:52.397Z,33.75
2023-01-12T06:23:21.335Z,35.25
2023-01-12T06:26:09.101Z,36.75
2023-01-12T06:28:40.965Z,36.00
2023-01-12T06:31:12.969Z,35.00
2023-01-12T06:33:43.272Z,35.00
2023-01-12T06:36:12.993Z,35.25
2023-01-12T06:38:43.338Z,36.00
2023-01-12T06:41:34.534Z,32.75
2023-01-12T06:44:03.499Z,35.00
2023-01-12T06:46:33.689Z,37.25
2023-01-12T06:49:02.622Z,38.25
2023-01-12T06:51:31.346Z,35.50
2023-01-12T06:54:01.483Z,37.75
2023-01-12T06:56:30.182Z,34.25
2023-01-12T06:58:59.167Z,37.25
2023-01-12T07:01:27.853Z,36.75
2023-01-12T07:03:58.348Z,37.25
2023-01-12T07:06:27.585Z,38.00
2023-01-12T07:08:56.546Z,34.25
2023-01-12T07:11:25.768Z,38.00
2023-01-12T07:13:56.359Z,36.00
2023-01-12T07:16:25.345Z,35.00
2023-01-12T07:18:54.333Z,32.25
2023-01-12T07:21:24.707Z,33.50
2023-01-12T07:23:53.905Z,28.00
2023-01-12T07:26:22.539Z,34.25
2023-01-12T07:28:51.677Z,33.50
2023-01-12T07:31:20.480Z,34.50
2023-01-12T07:33:52.127Z,37.50
2023-01-12T07:36:21.314Z,36.25
2023-01-12T07:38:51.886Z,34.75
2023-01-12T07:41:38.055Z,37.25
2023-01-12T07:44:15.205Z,36.25
2023-01-12T07:46:44.439Z,35.25
2023-01-12T07:49:14.146Z,37.75
2023-01-12T07:51:42.780Z,36.75
2023-01-12T07:54:13.780Z,36.25
2023-01-12T07:56:44.312Z,36.50
2023-01-12T07:59:13.345Z,37.00
2023-01-12T08:01:42.380Z,38.00
2023-01-12T08:04:11.360Z,40.00
2023-01-12T08:06:39.993Z,41.00
2023-01-12T08:09:09.000Z,43.50
2023-01-12T08:11:40.135Z,46.00
2023-01-12T08:14:09.641Z,41.75
2023-01-12T08:16:42.178Z,43.75
2023-01-12T08:19:17.602Z,42.75
2023-01-12T08:21:50.948Z,42.75
2023-01-12T08:24:25.833Z,45.25
2023-01-12T08:26:59.953Z,44.25
2023-01-12T08:29:33.960Z,36.50
2023-01-12T08:32:05.189Z,44.25
2023-01-12T08:34:35.293Z,43.00
2023-01-12T08:37:09.626Z,41.75
2023-01-12T08:39:39.492Z,40.25
2023-01-12T08:42:09.677Z,41.25
2023-01-12T08:44:38.962Z,41.75
2023-01-12T08:47:17.234Z,37.75
2023-01-12T08:49:46.981Z,36.75
2023-01-12T08:52:16.916Z,41.50
2023-01-12T08:54:46.593Z,37.50
2023-01-12T08:57:19.351Z,41.50
2023-01-12T08:59:48.387Z,39.00
2023-01-12T09:02:17.560Z,36.75
2023-01-12T09:04:46.762Z,38.75
2023-01-12T09:07:17.185Z,38.75
2023-01-12T09:09:46.066Z,38.75
2023-01-12T09:12:16.728Z,40.50
2023-01-12T09:14:45.689Z,39.75
2023-01-12T09:17:14.402Z,41.75
2023-01-12T09:19:44.647Z,40.50
2023-01-12T09:22:13.420Z,35.00
2023-01-12T09:24:42.516Z,36.25
2023-01-12T09:27:12.220Z,36.75
2023-01-12T09:29:42.525Z,34.25
2023-01-12T09:32:11.113Z,36.25
2023-01-12T09:34:40.354Z,35.50
2023-01-12T09:37:08.944Z,36.75
2023-01-12T09:39:38.000Z,37.00
2023-01-12T09:42:24.854Z,36.50
2023-01-12T09:45:12.505Z,38.00
2023-01-12T09:48:14.340Z,36.50
2023-01-12T09:50:53.006Z,37.75
2023-01-12T09:53:26.641Z,39.00
2023-01-12T09:56:04.743Z,42.25
2023-01-12T09:58:55.385Z,41.00
2023-01-12T10:01:30.428Z,41.75
2023-01-12T10:04:02.697Z,44.00
2023-01-12T10:06:33.072Z,43.33
2023-01-12T10:09:03.225Z,43.00
2023-01-12T10:11:41.440Z,37.00
2023-01-12T10:14:32.253Z,42.50
2023-01-12T10:17:18.087Z,42.00
2023-01-12T10:19:55.014Z,42.00
2023-01-12T10:22:38.878Z,42.50
2023-01-12T10:25:17.329Z,44.33
2023-01-12T10:27:48.268Z,47.33
2023-01-12T10:30:19.724Z,48.00
2023-01-12T10:32:49.991Z,46.75
2023-01-12T10:35:20.932Z,56.50
2023-01-12T10:37:52.916Z,50.33
2023-01-12T10:40:28.936Z,48.67
2023-01-12T10:43:24.034Z,50.25
2023-01-12T10:46:10.333Z,47.75
2023-01-12T10:48:43.293Z,48.33
2023-01-12T10:51:22.867Z,46.33
2023-01-12T10:53:56.126Z,39.00
2023-01-12T10:56:30.042Z,40.50
2023-01-12T10:59:02.601Z,40.75
2023-01-12T11:01:45.603Z,41.00
2023-01-12T11:04:20.434Z,41.50
2023-01-12T11:06:58.632Z,38.50
2023-01-12T11:09:30.122Z,38.50
2023-01-12T11:12:00.115Z,37.50
2023-01-12T11:14:32.815Z,34.75
2023-01-12T11:17:21.713Z,38.75
2023-01-12T11:19:54.569Z,40.25
2023-01-12T11:22:28.953Z,39.00
2023-01-12T11:25:02.221Z,39.25
2023-01-12T11:27:37.032Z,34.75
2023-01-12T11:30:16.120Z,36.00
2023-01-12T11:32:50.454Z,37.25
2023-01-12T11:35:29.499Z,42.75
2023-01-12T11:38:02.265Z,40.25
2023-01-12T11:40:33.908Z,41.00
2023-01-12T11:43:34.276Z,39.25
2023-01-12T11:46:13.616Z,37.75
2023-01-12T11:48:51.674Z,37.00
2023-01-12T11:51:22.295Z,37.00
2023-01-12T11:53:51.134Z,33.25
2023-01-12T11:56:57.147Z,36.50
2023-01-12T11:59:34.593Z,35.75
2023-01-12T12:02:20.170Z,35.25
2023-01-12T12:05:00.935Z,37.75
2023-01-12T12:07:46.066Z,39.00
2023-01-12T12:10:23.950Z,39.00
2023-01-12T12:13:16.273Z,38.75
2023-01-12T12:15:53.786Z,35.00
2023-01-12T12:18:39.747Z,40.00
2023-01-12T12:21:22.632Z,39.75
2023-01-12T12:24:06.723Z,41.00
2023-01-12T12:26:38.493Z,39.50
2023-01-12T12:29:22.749Z,38.00
2023-01-12T12:32:04.985Z,36.00
2023-01-12T12:34:55.427Z,33.00
2023-01-12T12:37:36.210Z,33.50
2023-01-12T12:40:18.361Z,24.00
2023-01-12T12:43:14.448Z,31.25
2023-01-12T12:45:51.420Z,32.50
2023-01-12T12:48:25.735Z,36.00
2023-01-12T12:51:02.284Z,33.25
2023-01-12T12:53:35.553Z,33.75
2023-01-12T12:56:09.013Z,31.25
2023-01-12T12:58:43.778Z,35.50
2023-01-12T13:01:55.171Z,36.00
2023-01-12T13:05:05.507Z,33.25
2023-01-12T13:07:44.078Z,37.00
2023-01-12T13:10:25.437Z,36.75
2023-01-12T13:13:05.055Z,26.00
2023-01-12T13:15:37.472Z,38.75
2023-01-12T13:18:07.444Z,39.50
2023-01-12T13:20:55.746Z,39.00
2023-01-12T13:23:48.903Z,37.00
2023-01-12T13:26:42.689Z,39.75
2023-01-12T13:29:47.942Z,40.00
2023-01-12T13:32:58.775Z,35.50
2023-01-12T13:35:57.490Z,37.00
2023-01-12T13:38:39.380Z,38.25
2023-01-12T13:41:45.636Z,0.00
2023-01-12T13:44:21.503Z,41.25
2023-01-12T13:46:52.722Z,43.50
2023-01-12T13:49:34.106Z,39.25
2023-01-12T13:52:06.192Z,38.75
2023-01-12T13:54:36.109Z,41.25
2023-01-12T13:57:10.671Z,22.75
2023-01-12T13:59:40.201Z,39.75
2023-01-12T14:02:19.245Z,34.75
2023-01-12T14:05:03.322Z,40.75
2023-01-12T14:07:44.970Z,41.00
2023-01-12T14:10:29.424Z,42.25
2023-01-12T14:13:24.557Z,41.75
2023-01-12T14:16:19.323Z,40.50
2023-01-12T14:18:51.229Z,40.67
2023-01-12T14:21:26.019Z,38.00
2023-01-12T14:24:09.547Z,39.50
2023-01-12T14:26:38.206Z,39.75
2023-01-12T14:29:09.646Z,41.25
2023-01-12T14:31:40.437Z,34.50
2023-01-12T14:34:24.646Z,39.25
2023-01-12T14:36:56.308Z,40.50
2023-01-12T14:39:29.032Z,39.50
2023-01-12T14:42:15.939Z,41.50
2023-01-12T14:45:09.726Z,42.25
2023-01-12T14:47:38.956Z,42.00
2023-01-12T14:50:18.792Z,42.75
2023-01-12T14:52:53.368Z,41.75
2023-01-12T14:55:29.075Z,42.00
2023-01-12T14:58:00.743Z,39.67
2023-01-12T15:00:32.555Z,41.25
2023-01-12T15:03:04.914Z,42.25
2023-01-12T15:05:36.830Z,43.50
2023-01-12T15:08:23.590Z,32.50
2023-01-12T15:10:58.619Z,41.50
2023-01-12T15:13:29.798Z,41.33
2023-01-12T15:16:16.099Z,44.33
2023-01-12T15:19:02.158Z,42.25
2023-01-12T15:21:50.593Z,42.25
2023-01-12T15:24:41.554Z,43.00
2023-01-12T15:27:12.328Z,42.00
2023-01-12T15:29:40.876Z,46.33
2023-01-12T15:32:15.375Z,41.75
2023-01-12T15:34:43.970Z,44.00
2023-01-12T15:37:16.024Z,39.75
2023-01-12T15:39:46.288Z,42.25
2023-01-12T15:42:21.436Z,42.25
2023-01-12T15:44:51.995Z,48.67
2023-01-12T15:47:22.972Z,46.67
2023-01-12T15:49:53.463Z,43.33
2023-01-12T15:52:25.035Z,44.00
2023-01-12T15:54:55.076Z,41.75
2023-01-12T15:57:24.406Z,42.00
2023-01-12T15:59:53.047Z,42.25
2023-01-12T16:02:27.756Z,43.67
2023-01-12T16:04:56.400Z,42.75
2023-01-12T16:07:25.771Z,44.67
2023-01-12T16:09:55.855Z,41.75
2023-01-12T16:12:26.140Z,42.50
2023-01-12T16:14:56.623Z,40.00
2023-01-12T16:17:26.131Z,41.75
2023-01-12T16:19:54.713Z,41.50
2023-01-12T16:22:28.025Z,42.00
2023-01-12T16:24:58.099Z,41.25
2023-01-12T16:27:28.167Z,42.75
2023-01-12T16:29:56.903Z,42.50
2023-01-12T16:32:26.676Z,41.00
2023-01-12T16:34:55.447Z,43.33
2023-01-12T16:37:27.562Z,41.25
2023-01-12T16:39:57.739Z,41.25
2023-01-12T16:42:30.233Z,43.00
2023-01-12T16:44:59.573Z,41.75
2023-01-12T16:47:28.596Z,42.75
2023-01-12T16:49:57.285Z,45.67
2023-01-12T16:52:26.315Z,42.75
2023-01-12T16:54:54.895Z,43.67
2023-01-12T16:57:25.572Z,43.75
2023-01-12T16:59:54.243Z,39.25
2023-01-12T17:02:23.439Z,43.00
2023-01-12T17:04:53.109Z,44.33
2023-01-12T17:07:22.412Z,42.33
2023-01-12T17:09:51.295Z,43.33
2023-01-12T17:12:20.384Z,45.33
2023-01-12T17:14:50.564Z,43.00
2023-01-12T17:17:20.875Z,48.67
2023-01-12T17:19:49.880Z,47.00
2023-01-12T17:22:18.939Z,48.00
2023-01-12T17:24:47.890Z,52.75
2023-01-12T17:27:16.987Z,49.25
2023-01-12T17:29:45.605Z,52.00
2023-01-12T17:32:16.088Z,56.75
2023-01-12T17:34:47.970Z,53.25
2023-01-12T17:37:17.305Z,83.75
2023-01-12T17:39:47.380Z,61.00
2023-01-12T17:42:35.518Z,64.50
2023-01-12T17:45:05.046Z,63.00
2023-01-12T17:47:35.407Z,64.00
2023-01-12T17:50:04.110Z,62.50
2023-01-12T17:52:33.087Z,67.75
2023-01-12T17:55:01.722Z,69.75
2023-01-12T17:57:31.635Z,67.25
2023-01-12T18:00:00.305Z,77.50
2023-01-12T18:02:29.306Z,74.25
2023-01-12T18:04:59.417Z,78.50
2023-01-12T18:07:29.004Z,83.00
2023-01-12T18:09:57.661Z,76.50
2023-01-12T18:12:27.523Z,80.25
2023-01-12T18:14:56.748Z,72.25
2023-01-12T18:17:25.715Z,78.75
2023-01-12T18:19:54.419Z,75.25
2023-01-12T18:22:24.716Z,72.50
2023-01-12T18:24:53.278Z,76.25
2023-01-12T18:27:22.311Z,70.25
2023-01-12T18:29:50.846Z,72.75
2023-01-12T18:32:19.682Z,72.50
2023-01-12T18:34:48.272Z,73.75
2023-01-12T18:37:17.953Z,62.75
2023-01-12T18:39:50.111Z,72.75
2023-01-12T18:42:36.454Z,68.00
2023-01-12T18:45:05.546Z,64.00
2023-01-12T18:47:52.096Z,65.75
2023-01-12T18:50:38.506Z,69.75
2023-01-12T18:53:29.978Z,68.00
2023-01-12T18:56:03.352Z,68.50
2023-01-12T18:58:33.540Z,68.50
2023-01-12T19:01:04.886Z,66.75
2023-01-12T19:03:36.724Z,67.50
2023-01-12T19:06:22.223Z,67.00
2023-01-12T19:09:10.622Z,65.50
2023-01-12T19:11:41.295Z,65.50
2023-01-12T19:14:28.552Z,66.50
2023-01-12T19:17:14.494Z,76.00
2023-01-12T19:19:43.341Z,69.00
2023-01-12T19:22:29.552Z,67.00
2023-01-12T19:25:15.593Z,71.00
2023-01-12T19:28:03.871Z,66.00
2023-01-12T19:30:33.343Z,67.75
2023-01-12T19:33:03.785Z,69.50
2023-01-12T19:35:32.664Z,65.00
2023-01-12T19:38:01.473Z,59.50
2023-01-12T19:40:34.887Z,69.25
2023-01-12T19:43:14.580Z,64.75
2023-01-12T19:45:44.903Z,59.25
2023-01-12T19:48:15.698Z,61.50
2023-01-12T19:50:45.322Z,53.50
2023-01-12T19:53:15.735Z,47.25
2023-01-12T19:55:44.630Z,57.75
2023-01-12T19:58:15.304Z,56.00
2023-01-12T20:00:46.375Z,56.25
2023-01-12T20:03:16.742Z,56.50
2023-01-12T20:05:47.621Z,55.00
2023-01-12T20:08:16.590Z,48.25
2023-01-12T20:10:45.769Z,46.50
2023-01-12T20:13:15.728Z,43.33
2023-01-12T20:15:44.915Z,46.00
2023-01-12T20:18:13.901Z,46.00
2023-01-12T20:20:43.299Z,50.25
2023-01-12T20:23:12.898Z,50.00
2023-01-12T20:25:43.186Z,49.75
2023-01-12T20:28:12.496Z,53.00
2023-01-12T20:30:44.128Z,57.25
2023-01-12T20:33:13.345Z,53.75
2023-01-12T20:35:46.390Z,51.75
2023-01-12T20:38:16.896Z,57.00
2023-01-12T20:40:46.959Z,58.25
2023-01-12T20:43:15.690Z,58.75
2023-01-12T20:45:46.344Z,64.00
2023-01-12T20:48:15.591Z,65.75
2023-01-12T20:50:45.084Z,62.75
2023-01-12T20:53:14.829Z,62.50
2023-01-12T20:55:45.130Z,50.25
2023-01-12T20:58:14.228Z,58.75
2023-01-12T21:00:45.372Z,68.25
2023-01-12T21:03:14.460Z,67.50
2023-01-12T21:05:44.538Z,66.00
2023-01-12T21:08:14.366Z,67.25
2023-01-12T21:10:50.502Z,73.00
2023-01-12T21:13:20.098Z,70.75
2023-01-12T21:15:58.591Z,61.50
2023-01-12T21:18:27.601Z,62.25
2023-01-12T21:20:57.284Z,61.25
2023-01-12T21:23:26.780Z,50.00
2023-01-12T21:25:55.825Z,54.75
2023-01-12T21:28:25.138Z,58.50
2023-01-12T21:30:55.714Z,59.25
2023-01-12T21:33:24.283Z,59.50
2023-01-12T21:35:56.842Z,61.75
2023-01-12T21:38:26.745Z,60.75
2023-01-12T21:40:56.678Z,59.00
2023-01-12T21:43:24.438Z,61.50
2023-01-12T21:45:57.495Z,54.50
2023-01-12T21:48:26.304Z,59.00
2023-01-12T21:50:55.370Z,55.00
2023-01-12T21:53:25.036Z,53.25
2023-01-12T21:55:55.462Z,54.25
2023-01-12T21:58:24.253Z,48.50
2023-01-12T22:00:54.217Z,54.00
2023-01-12T22:03:26.610Z,57.75
2023-01-12T22:05:56.337Z,58.75
2023-01-12T22:08:24.874Z,57.50
2023-01-12T22:10:53.871Z,57.00
2023-01-12T22:13:22.566Z,57.75
2023-01-12T22:15:52.285Z,57.00
2023-01-12T22:18:21.190Z,59.25
2023-01-12T22:20:51.574Z,57.50
2023-01-12T22:23:20.218Z,49.00
2023-01-12T22:25:49.067Z,57.25
2023-01-12T22:28:17.653Z,56.00
2023-01-12T22:30:46.624Z,53.00
2023-01-12T22:33:15.944Z,49.50
2023-01-12T22:35:44.942Z,54.00
2023-01-12T22:38:15.013Z,55.25
2023-01-12T22:40:43.824Z,47.75
2023-01-12T22:43:27.487Z,53.00
2023-01-12T22:45:58.048Z,48.75
2023-01-12T22:48:28.379Z,49.00
2023-01-12T22:51:01.927Z,48.00
2023-01-12T22:53:32.169Z,50.75
2023-01-12T22:56:01.841Z,54.00
2023-01-12T22:58:31.041Z,46.25
2023-01-12T23:01:04.422Z,49.75
2023-01-12T23:03:33.417Z,50.00
2023-01-12T23:06:03.142Z,48.75
2023-01-12T23:08:33.513Z,49.50
2023-01-12T23:11:07.687Z,48.75
2023-01-12T23:13:36.781Z,52.25
2023-01-12T23:16:07.902Z,49.00
2023-01-12T23:18:39.952Z,52.25
2023-01-12T23:21:14.270Z,57.50
2023-01-12T23:23:46.859Z,54.75
2023-01-12T23:26:17.984Z,49.25
2023-01-12T23:28:48.674Z,37.00
2023-01-12T23:31:19.853Z,52.25
2023-01-12T23:33:48.992Z,52.50
2023-01-12T23:36:20.035Z,49.33
2023-01-12T23:38:53.887Z,51.00
2023-01-12T23:41:25.472Z,49.00
2023-01-12T23:43:56.233Z,48.25
2023-01-12T23:46:25.291Z,44.33
2023-01-12T23:48:55.909Z,48.00
2023-01-12T23:51:26.116Z,47.67
2023-01-12T23:53:57.461Z,51.00
2023-01-12T23:56:28.130Z,46.33
2023-01-12T23:58:57.108Z,44.33
